sensor_id;sensor_type;location;lat;lon;timestamp;pressure;altitude;pressure_sealevel;temperature;humidity
71194;BME280;58903;47.210;8.618;2023-04-24T00:01:05;93445.84;;;26.79;41.16
71194;BME280;58903;47.210;8.618;2023-04-24T00:03:33;93435.56;;;26.79;41.67
71194;BME280;58903;47.210;8.618;2023-04-24T00:06:05;93436.47;;;26.82;41.16
71194;BME280;58903;47.210;8.618;2023-04-24T00:08:36;93432.25;;;26.81;41.12
71194;BME280;58903;47.210;8.618;2023-04-24T00:11:05;93432.25;;;26.81;41.30
71194;BME280;58903;47.210;8.618;2023-04-24T00:13:31;93428.19;;;26.82;41.21
71194;BME280;58903;47.210;8.618;2023-04-24T00:15:59;93437.97;;;26.83;41.01
71194;BME280;58903;47.210;8.618;2023-04-24T00:18:27;93439.97;;;26.82;41.24
71194;BME280;58903;47.210;8.618;2023-04-24T00:20:53;93436.84;;;26.78;41.22
71194;BME280;58903;47.210;8.618;2023-04-24T00:23:19;93442.53;;;26.80;41.30
71194;BME280;58903;47.210;8.618;2023-04-24T00:25:47;93444.75;;;26.82;40.96
71194;BME280;58903;47.210;8.618;2023-04-24T00:28:15;93448.63;;;26.79;41.15
71194;BME280;58903;47.210;8.618;2023-04-24T00:30:43;93447.50;;;26.82;41.49
71194;BME280;58903;47.210;8.618;2023-04-24T00:33:20;93445.31;;;26.80;41.26
71194;BME280;58903;47.210;8.618;2023-04-24T00:35:59;93438.31;;;26.79;41.05
71194;BME280;58903;47.210;8.618;2023-04-24T00:38:26;93438.09;;;26.77;41.09
71194;BME280;58903;47.210;8.618;2023-04-24T00:41:29;93431.31;;;26.78;40.96
71194;BME280;58903;47.210;8.618;2023-04-24T00:43:57;93429.31;;;26.79;41.42
71194;BME280;58903;47.210;8.618;2023-04-24T00:46:24;93427.81;;;26.78;41.24
71194;BME280;58903;47.210;8.618;2023-04-24T00:48:51;93430.38;;;26.76;41.49
71194;BME280;58903;47.210;8.618;2023-04-24T00:51:20;93431.31;;;26.78;41.20
71194;BME280;58903;47.210;8.618;2023-04-24T00:53:51;93431.88;;;26.77;41.25
71194;BME280;58903;47.210;8.618;2023-04-24T00:56:30;93433.31;;;26.78;40.93
71194;BME280;58903;47.210;8.618;2023-04-24T00:59:21;93441.41;;;26.76;40.99
71194;BME280;58903;47.210;8.618;2023-04-24T01:01:50;93451.19;;;26.77;41.13
71194;BME280;58903;47.210;8.618;2023-04-24T01:04:54;93449.13;;;26.77;41.09
71194;BME280;58903;47.210;8.618;2023-04-24T01:07:20;93437.19;;;26.75;40.90
71194;BME280;58903;47.210;8.618;2023-04-24T01:09:55;93442.16;;;26.76;41.18
71194;BME280;58903;47.210;8.618;2023-04-24T01:12:24;93443.41;;;26.75;41.42
71194;BME280;58903;47.210;8.618;2023-04-24T01:15:06;93434.94;;;26.73;41.13
71194;BME280;58903;47.210;8.618;2023-04-24T01:17:46;93437.47;;;26.71;40.91
71194;BME280;58903;47.210;8.618;2023-04-24T01:20:25;93436.75;;;26.71;41.87
71194;BME280;58903;47.210;8.618;2023-04-24T01:22:53;93432.50;;;26.70;41.46
71194;BME280;58903;47.210;8.618;2023-04-24T01:25:21;93434.72;;;26.71;41.44
71194;BME280;58903;47.210;8.618;2023-04-24T01:27:52;93438.22;;;26.72;41.28
71194;BME280;58903;47.210;8.618;2023-04-24T01:30:31;93436.75;;;26.71;41.11
71194;BME280;58903;47.210;8.618;2023-04-24T01:33:31;93429.22;;;26.71;41.18
71194;BME280;58903;47.210;8.618;2023-04-24T01:36:28;93432.50;;;26.70;41.22
71194;BME280;58903;47.210;8.618;2023-04-24T01:39:24;93436.03;;;26.70;41.71
71194;BME280;58903;47.210;8.618;2023-04-24T01:42:02;93444.50;;;26.72;41.54
71194;BME280;58903;47.210;8.618;2023-04-24T01:44:37;93444.72;;;26.74;40.84
71194;BME280;58903;47.210;8.618;2023-04-24T01:47:06;93433.97;;;26.71;41.26
71194;BME280;58903;47.210;8.618;2023-04-24T01:49:32;93438.03;;;26.70;41.09
71194;BME280;58903;47.210;8.618;2023-04-24T01:52:01;93441.97;;;26.74;41.33
71194;BME280;58903;47.210;8.618;2023-04-24T01:54:27;93441.72;;;26.72;40.91
71194;BME280;58903;47.210;8.618;2023-04-24T01:57:09;93447.25;;;26.72;41.50
71194;BME280;58903;47.210;8.618;2023-04-24T01:59:35;93442.50;;;26.73;41.41
71194;BME280;58903;47.210;8.618;2023-04-24T02:02:02;93442.50;;;26.73;41.06
71194;BME280;58903;47.210;8.618;2023-04-24T02:04:28;93450.00;;;26.72;40.92
71194;BME280;58903;47.210;8.618;2023-04-24T02:06:56;93446.50;;;26.72;40.80
71194;BME280;58903;47.210;8.618;2023-04-24T02:09:21;93445.00;;;26.71;41.40
71194;BME280;58903;47.210;8.618;2023-04-24T02:11:50;93448.03;;;26.73;41.24
71194;BME280;58903;47.210;8.618;2023-04-24T02:14:18;93441.00;;;26.72;41.87
71194;BME280;58903;47.210;8.618;2023-04-24T02:16:53;93434.94;;;26.73;41.13
71194;BME280;58903;47.210;8.618;2023-04-24T02:19:20;93443.22;;;26.73;41.26
71194;BME280;58903;47.210;8.618;2023-04-24T02:21:54;93449.50;;;26.74;40.78
71194;BME280;58903;47.210;8.618;2023-04-24T02:24:26;93441.72;;;26.72;41.43
71194;BME280;58903;47.210;8.618;2023-04-24T02:27:00;93443.97;;;26.74;41.41
71194;BME280;58903;47.210;8.618;2023-04-24T02:29:58;93448.03;;;26.73;40.95
71194;BME280;58903;47.210;8.618;2023-04-24T02:32:31;93438.78;;;26.70;41.06
71194;BME280;58903;47.210;8.618;2023-04-24T02:35:01;93433.97;;;26.71;41.33
71194;BME280;58903;47.210;8.618;2023-04-24T02:37:34;93426.44;;;26.71;41.18
71194;BME280;58903;47.210;8.618;2023-04-24T02:40:16;93432.50;;;26.70;41.37
71194;BME280;58903;47.210;8.618;2023-04-24T02:42:48;93427.75;;;26.70;40.94
71194;BME280;58903;47.210;8.618;2023-04-24T02:45:16;93436.53;;;26.69;41.20
71194;BME280;58903;47.210;8.618;2023-04-24T02:47:51;93436.53;;;26.69;41.32
71194;BME280;58903;47.210;8.618;2023-04-24T02:50:51;93434.72;;;26.71;41.34
71194;BME280;58903;47.210;8.618;2023-04-24T02:53:17;93432.72;;;26.72;40.79
71194;BME280;58903;47.210;8.618;2023-04-24T02:56:02;93437.00;;;26.73;41.03
71194;BME280;58903;47.210;8.618;2023-04-24T02:58:37;93439.75;;;26.73;41.31
71194;BME280;58903;47.210;8.618;2023-04-24T03:01:12;93438.22;;;26.72;40.83
71194;BME280;58903;47.210;8.618;2023-04-24T03:03:47;93434.94;;;26.73;40.79
71194;BME280;58903;47.210;8.618;2023-04-24T03:06:45;93426.25;;;26.69;41.41
71194;BME280;58903;47.210;8.618;2023-04-24T03:09:41;93423.50;;;26.69;40.95
71194;BME280;58903;47.210;8.618;2023-04-24T03:12:20;93419.28;;;26.68;41.43
71194;BME280;58903;47.210;8.618;2023-04-24T03:14:58;93416.50;;;26.68;41.36
71194;BME280;58903;47.210;8.618;2023-04-24T03:17:30;93413.94;;;26.70;41.49
71194;BME280;58903;47.210;8.618;2023-04-24T03:20:29;93408.97;;;26.69;40.80
71194;BME280;58903;47.210;8.618;2023-04-24T03:23:21;93411.19;;;26.70;40.87
71194;BME280;58903;47.210;8.618;2023-04-24T03:25:48;93410.44;;;26.70;41.28
71194;BME280;58903;47.210;8.618;2023-04-24T03:28:33;93408.97;;;26.69;40.96
71194;BME280;58903;47.210;8.618;2023-04-24T03:31:00;93414.47;;;26.69;40.95
71194;BME280;58903;47.210;8.618;2023-04-24T03:33:35;93415.78;;;26.68;41.26
71194;BME280;58903;47.210;8.618;2023-04-24T03:36:17;93418.34;;;26.66;41.47
71194;BME280;58903;47.210;8.618;2023-04-24T03:38:54;93413.34;;;26.64;41.39
71194;BME280;58903;47.210;8.618;2023-04-24T03:41:29;93412.81;;;26.66;40.74
71194;BME280;58903;47.210;8.618;2023-04-24T03:44:09;93419.06;;;26.66;41.21
71194;BME280;58903;47.210;8.618;2023-04-24T03:46:54;93415.56;;;26.66;40.97
71194;BME280;58903;47.210;8.618;2023-04-24T03:49:22;93418.34;;;26.66;41.09
71194;BME280;58903;47.210;8.618;2023-04-24T03:51:48;93409.66;;;26.62;41.39
71194;BME280;58903;47.210;8.618;2023-04-24T03:54:19;93419.59;;;26.65;41.28
71194;BME280;58903;47.210;8.618;2023-04-24T03:56:45;93423.09;;;26.65;41.31
71194;BME280;58903;47.210;8.618;2023-04-24T03:59:49;93412.63;;;26.64;41.50
71194;BME280;58903;47.210;8.618;2023-04-24T04:02:34;93420.16;;;26.63;41.50
71194;BME280;58903;47.210;8.618;2023-04-24T04:05:00;93415.38;;;26.64;41.44
71194;BME280;58903;47.210;8.618;2023-04-24T04:07:28;93407.81;;;26.64;41.41
71194;BME280;58903;47.210;8.618;2023-04-24T04:10:06;93415.38;;;26.64;41.42
71194;BME280;58903;47.210;8.618;2023-04-24T04:12:33;93416.66;;;26.63;41.38
71194;BME280;58903;47.210;8.618;2023-04-24T04:15:22;93425.66;;;26.63;41.37
71194;BME280;58903;47.210;8.618;2023-04-24T04:18:00;93417.00;;;26.59;41.46
71194;BME280;58903;47.210;8.618;2023-04-24T04:20:46;93427.69;;;26.63;41.16
71194;BME280;58903;47.210;8.618;2023-04-24T04:23:12;93426.22;;;26.62;41.27
71194;BME280;58903;47.210;8.618;2023-04-24T04:25:57;93430.97;;;26.61;41.02
71194;BME280;58903;47.210;8.618;2023-04-24T04:28:35;93427.84;;;26.57;41.59
71194;BME280;58903;47.210;8.618;2023-04-24T04:31:05;93429.28;;;26.58;41.56
71194;BME280;58903;47.210;8.618;2023-04-24T04:33:42;93435.56;;;26.59;41.40
71194;BME280;58903;47.210;8.618;2023-04-24T04:36:09;93432.81;;;26.59;41.47
71194;BME280;58903;47.210;8.618;2023-04-24T04:38:37;93426.53;;;26.58;41.34
71194;BME280;58903;47.210;8.618;2023-04-24T04:41:25;93437.06;;;26.60;41.32
71194;BME280;58903;47.210;8.618;2023-04-24T04:44:00;93440.53;;;26.60;41.31
71194;BME280;58903;47.210;8.618;2023-04-24T04:46:35;93447.34;;;26.59;41.04
71194;BME280;58903;47.210;8.618;2023-04-24T04:49:37;93450.09;;;26.59;41.60
71194;BME280;58903;47.210;8.618;2023-04-24T04:52:23;93452.66;;;26.57;41.37
71194;BME280;58903;47.210;8.618;2023-04-24T04:55:01;93456.34;;;26.60;41.47
71194;BME280;58903;47.210;8.618;2023-04-24T04:57:39;93455.94;;;26.56;41.22
71194;BME280;58903;47.210;8.618;2023-04-24T05:00:06;93454.13;;;26.58;41.33
71194;BME280;58903;47.210;8.618;2023-04-24T05:02:50;93463.13;;;26.59;41.54
71194;BME280;58903;47.210;8.618;2023-04-24T05:05:49;93464.63;;;26.60;41.65
71194;BME280;58903;47.210;8.618;2023-04-24T05:08:30;93469.19;;;26.57;41.13
71194;BME280;58903;47.210;8.618;2023-04-24T05:10:56;93469.19;;;26.57;41.63
71194;BME280;58903;47.210;8.618;2023-04-24T05:13:41;93476.94;;;26.59;41.55
71194;BME280;58903;47.210;8.618;2023-04-24T05:16:41;93491.47;;;26.59;41.17
71194;BME280;58903;47.210;8.618;2023-04-24T05:19:17;93489.97;;;26.58;41.42
71194;BME280;58903;47.210;8.618;2023-04-24T05:21:46;93497.50;;;26.58;41.18
71194;BME280;58903;47.210;8.618;2023-04-24T05:24:32;93509.28;;;26.58;41.68
71194;BME280;58903;47.210;8.618;2023-04-24T05:26:58;93507.06;;;26.57;41.59
71194;BME280;58903;47.210;8.618;2023-04-24T05:29:33;93523.06;;;26.58;41.57
71194;BME280;58903;47.210;8.618;2023-04-24T05:32:16;93529.13;;;26.57;41.02
71194;BME280;58903;47.210;8.618;2023-04-24T05:35:08;93541.63;;;26.58;41.23
71194;BME280;58903;47.210;8.618;2023-04-24T05:37:34;93555.97;;;26.56;41.66
71194;BME280;58903;47.210;8.618;2023-04-24T05:40:10;93558.19;;;26.58;41.49
71194;BME280;58903;47.210;8.618;2023-04-24T05:42:38;93558.91;;;26.58;41.20
71194;BME280;58903;47.210;8.618;2023-04-24T05:45:15;93561.69;;;26.58;41.87
71194;BME280;58903;47.210;8.618;2023-04-24T05:47:43;93565.72;;;26.57;41.03
71194;BME280;58903;47.210;8.618;2023-04-24T05:50:24;93571.03;;;26.55;41.17
71194;BME280;58903;47.210;8.618;2023-04-24T05:53:08;93574.72;;;26.58;41.47
71194;BME280;58903;47.210;8.618;2023-04-24T05:55:38;93577.47;;;26.58;41.24
71194;BME280;58903;47.210;8.618;2023-04-24T05:58:04;93575.47;;;26.58;41.67
71194;BME280;58903;47.210;8.618;2023-04-24T06:00:56;93571.97;;;26.58;41.21
71194;BME280;58903;47.210;8.618;2023-04-24T06:03:28;93591.28;;;26.58;41.42
71194;BME280;58903;47.210;8.618;2023-04-24T06:06:14;93575.47;;;26.58;41.44
71194;BME280;58903;47.210;8.618;2023-04-24T06:08:46;93577.47;;;26.58;41.17
71194;BME280;58903;47.210;8.618;2023-04-24T06:11:38;93578.22;;;26.58;41.01
71194;BME280;58903;47.210;8.618;2023-04-24T06:14:29;93578.97;;;26.59;41.82
71194;BME280;58903;47.210;8.618;2023-04-24T06:16:58;93587.03;;;26.57;41.29
71194;BME280;58903;47.210;8.618;2023-04-24T06:19:36;93585.34;;;26.54;41.44
71194;BME280;58903;47.210;8.618;2023-04-24T06:22:02;93575.81;;;26.55;41.17
71194;BME280;58903;47.210;8.618;2023-04-24T06:24:29;93578.78;;;26.57;41.87
71194;BME280;58903;47.210;8.618;2023-04-24T06:26:56;93579.53;;;26.57;41.65
71194;BME280;58903;47.210;8.618;2023-04-24T06:29:24;93576.56;;;26.55;41.11
71194;BME280;58903;47.210;8.618;2023-04-24T06:31:54;93581.53;;;26.57;41.44
71194;BME280;58903;47.210;8.618;2023-04-24T06:34:20;93582.28;;;26.57;41.14
71194;BME280;58903;47.210;8.618;2023-04-24T06:37:05;93571.75;;;26.56;41.22
71194;BME280;58903;47.210;8.618;2023-04-24T06:39:33;93579.53;;;26.57;41.42
71194;BME280;58903;47.210;8.618;2023-04-24T06:42:00;93575.81;;;26.55;41.55
71194;BME280;58903;47.210;8.618;2023-04-24T06:44:28;93574.53;;;26.56;41.39
71194;BME280;58903;47.210;8.618;2023-04-24T06:46:55;93573.59;;;26.53;41.58
71194;BME280;58903;47.210;8.618;2023-04-24T06:49:27;93578.03;;;26.56;41.22
71194;BME280;58903;47.210;8.618;2023-04-24T06:51:53;93577.47;;;26.58;41.11
71194;BME280;58903;47.210;8.618;2023-04-24T06:54:21;93584.28;;;26.57;41.50
71194;BME280;58903;47.210;8.618;2023-04-24T06:56:57;93583.53;;;26.56;41.66
71194;BME280;58903;47.210;8.618;2023-04-24T06:59:38;93582.78;;;26.56;41.25
71194;BME280;58903;47.210;8.618;2023-04-24T07:02:06;93581.53;;;26.57;42.08
71194;BME280;58903;47.210;8.618;2023-04-24T07:04:53;93584.84;;;26.55;41.28
71194;BME280;58903;47.210;8.618;2023-04-24T07:07:31;93586.09;;;26.54;41.90
71194;BME280;58903;47.210;8.618;2023-04-24T07:10:27;93582.78;;;26.56;41.51
71194;BME280;58903;47.210;8.618;2023-04-24T07:13:11;93568.81;;;26.54;41.25
71194;BME280;58903;47.210;8.618;2023-04-24T07:15:56;93579.84;;;26.54;41.70
71194;BME280;58903;47.210;8.618;2023-04-24T07:18:22;93603.38;;;26.55;41.43
71194;BME280;58903;47.210;8.618;2023-04-24T07:20:48;93608.91;;;26.55;41.43
71194;BME280;58903;47.210;8.618;2023-04-24T07:23:16;93614.97;;;26.53;41.75
71194;BME280;58903;47.210;8.618;2023-04-24T07:25:42;93624.50;;;26.52;41.91
71194;BME280;58903;47.210;8.618;2023-04-24T07:28:21;93631.50;;;26.53;42.09
71194;BME280;58903;47.210;8.618;2023-04-24T07:37:19;93637.34;;;26.50;41.76
71194;BME280;58903;47.210;8.618;2023-04-24T07:39:48;93636.28;;;26.53;41.59
71194;BME280;58903;47.210;8.618;2023-04-24T07:42:13;93639.03;;;26.53;41.13
71194;BME280;58903;47.210;8.618;2023-04-24T07:45:13;93623.97;;;26.54;41.71
71194;BME280;58903;47.210;8.618;2023-04-24T07:47:41;93618.78;;;26.50;41.69
71194;BME280;58903;47.210;8.618;2023-04-24T07:50:19;93627.25;;;26.52;41.93
71194;BME280;58903;47.210;8.618;2023-04-24T07:52:56;93623.75;;;26.52;41.21
71194;BME280;58903;47.210;8.618;2023-04-24T07:55:31;93626.50;;;26.52;41.68
71194;BME280;58903;47.210;8.618;2023-04-24T07:58:08;93636.50;;;26.55;41.88
71194;BME280;58903;47.210;8.618;2023-04-24T08:00:43;93626.19;;;26.55;41.27
71194;BME280;58903;47.210;8.618;2023-04-24T08:06:22;93627.13;;;26.58;41.47
71194;BME280;58903;47.210;8.618;2023-04-24T08:08:51;93625.84;;;26.59;41.66
71194;BME280;58903;47.210;8.618;2023-04-24T08:11:19;93636.91;;;26.59;41.33
71194;BME280;58903;47.210;8.618;2023-04-24T08:14:00;93645.38;;;26.61;41.51
71194;BME280;58903;47.210;8.618;2023-04-24T08:16:43;93640.59;;;26.61;41.08
71194;BME280;58903;47.210;8.618;2023-04-24T08:19:19;93638.59;;;26.62;41.73
71194;BME280;58903;47.210;8.618;2023-04-24T08:21:45;93638.59;;;26.62;41.56
71194;BME280;58903;47.210;8.618;2023-04-24T08:24:42;93639.31;;;26.62;41.05
71194;BME280;58903;47.210;8.618;2023-04-24T08:27:13;93645.03;;;26.64;41.31
71194;BME280;58903;47.210;8.618;2023-04-24T08:29:40;93642.50;;;26.66;41.37
71194;BME280;58903;47.210;8.618;2023-04-24T08:32:16;93643.44;;;26.69;41.46
71194;BME280;58903;47.210;8.618;2023-04-24T08:34:42;93650.97;;;26.68;41.11
71194;BME280;58903;47.210;8.618;2023-04-24T08:37:11;93656.50;;;26.68;41.21
71194;BME280;58903;47.210;8.618;2023-04-24T08:39:47;93659.06;;;26.66;41.52
71194;BME280;58903;47.210;8.618;2023-04-24T08:42:20;93665.28;;;26.67;40.89
71194;BME280;58903;47.210;8.618;2023-04-24T08:44:56;93668.25;;;26.69;41.40
71194;BME280;58903;47.210;8.618;2023-04-24T08:47:23;93665.50;;;26.69;40.62
71194;BME280;58903;47.210;8.618;2023-04-24T08:49:52;93679.28;;;26.69;41.52
71194;BME280;58903;47.210;8.618;2023-04-24T08:52:43;93673.78;;;26.69;41.17
71194;BME280;58903;47.210;8.618;2023-04-24T08:55:15;93679.28;;;26.69;41.04
71194;BME280;58903;47.210;8.618;2023-04-24T08:57:57;93683.34;;;26.68;41.27
71194;BME280;58903;47.210;8.618;2023-04-24T09:00:39;93679.28;;;26.69;41.03
71194;BME280;58903;47.210;8.618;2023-04-24T09:03:35;93673.06;;;26.68;41.18
71194;BME280;58903;47.210;8.618;2023-04-24T09:06:33;93683.34;;;26.68;40.52
71194;BME280;58903;47.210;8.618;2023-04-24T09:09:32;93685.91;;;26.66;40.71
71194;BME280;58903;47.210;8.618;2023-04-24T09:12:17;93690.88;;;26.67;41.38
71194;BME280;58903;47.210;8.618;2023-04-24T09:15:02;93685.47;;;26.62;40.78
71194;BME280;58903;47.210;8.618;2023-04-24T09:17:40;93705.00;;;26.64;40.93
71194;BME280;58903;47.210;8.618;2023-04-24T09:20:31;93715.81;;;26.62;40.77
71194;BME280;58903;47.210;8.618;2023-04-24T09:23:17;93716.34;;;26.60;41.08
71194;BME280;58903;47.210;8.618;2023-04-24T09:25:44;93718.38;;;26.60;40.91
71194;BME280;58903;47.210;8.618;2023-04-24T09:28:40;93721.13;;;26.60;41.23
71194;BME280;58903;47.210;8.618;2023-04-24T09:31:39;93730.88;;;26.61;40.70
71194;BME280;58903;47.210;8.618;2023-04-24T09:34:07;93727.16;;;26.58;41.08
71194;BME280;58903;47.210;8.618;2023-04-24T09:36:59;93719.09;;;26.60;40.86
71194;BME280;58903;47.210;8.618;2023-04-24T09:39:29;93719.84;;;26.61;41.22
71194;BME280;58903;47.210;8.618;2023-04-24T09:42:05;93725.34;;;26.61;40.99
71194;BME280;58903;47.210;8.618;2023-04-24T09:44:36;93731.28;;;26.65;41.00
71194;BME280;58903;47.210;8.618;2023-04-24T09:47:08;93730.88;;;26.61;41.09
71194;BME280;58903;47.210;8.618;2023-04-24T09:49:35;93731.28;;;26.65;40.86
71194;BME280;58903;47.210;8.618;2023-04-24T09:52:11;93727.06;;;26.64;40.59
71194;BME280;58903;47.210;8.618;2023-04-24T09:54:38;93723.56;;;26.63;40.44
71194;BME280;58903;47.210;8.618;2023-04-24T10:00:25;93732.59;;;26.64;41.16
71194;BME280;58903;47.210;8.618;2023-04-24T10:03:05;93729.06;;;26.63;41.05
71194;BME280;58903;47.210;8.618;2023-04-24T10:05:35;93716.03;;;26.64;40.51
71194;BME280;58903;47.210;8.618;2023-04-24T10:08:13;93718.59;;;26.62;41.30
71194;BME280;58903;47.210;8.618;2023-04-24T10:10:43;93709.75;;;26.63;40.60
71194;BME280;58903;47.210;8.618;2023-04-24T10:13:10;93713.78;;;26.62;40.76
71194;BME280;58903;47.210;8.618;2023-04-24T10:16:10;93720.81;;;26.63;40.86
71194;BME280;58903;47.210;8.618;2023-04-24T10:18:38;93720.25;;;26.65;40.59
71194;BME280;58903;47.210;8.618;2023-04-24T10:21:23;93719.50;;;26.64;40.89
71194;BME280;58903;47.210;8.618;2023-04-24T10:24:10;93723.56;;;26.63;40.61
71194;BME280;58903;47.210;8.618;2023-04-24T10:26:47;93722.28;;;26.64;40.35
71194;BME280;58903;47.210;8.618;2023-04-24T10:29:17;93728.31;;;26.63;40.65
71194;BME280;58903;47.210;8.618;2023-04-24T10:31:45;93727.56;;;26.62;40.79
71194;BME280;58903;47.210;8.618;2023-04-24T10:34:19;93729.63;;;26.62;40.94
71194;BME280;58903;47.210;8.618;2023-04-24T10:37:05;93733.63;;;26.61;41.34
71194;BME280;58903;47.210;8.618;2023-04-24T10:39:42;93729.06;;;26.63;40.81
71194;BME280;58903;47.210;8.618;2023-04-24T10:42:15;93736.59;;;26.63;41.01
71194;BME280;58903;47.210;8.618;2023-04-24T10:44:43;93739.91;;;26.61;40.56
71194;BME280;58903;47.210;8.618;2023-04-24T10:47:23;93733.63;;;26.61;40.54
71194;BME280;58903;47.210;8.618;2023-04-24T10:49:51;93739.16;;;26.61;40.79
71194;BME280;58903;47.210;8.618;2023-04-24T10:52:19;93751.13;;;26.63;40.43
71194;BME280;58903;47.210;8.618;2023-04-24T10:55:31;93737.16;;;26.61;40.37
71194;BME280;58903;47.210;8.618;2023-04-24T10:58:11;93747.97;;;26.59;41.15
71194;BME280;58903;47.210;8.618;2023-04-24T11:01:08;93749.66;;;26.62;40.89
71194;BME280;58903;47.210;8.618;2023-04-24T11:03:53;93758.47;;;26.61;40.72
71194;BME280;58903;47.210;8.618;2023-04-24T11:06:33;93741.91;;;26.61;40.38
71194;BME280;58903;47.210;8.618;2023-04-24T11:09:10;93748.38;;;26.63;40.75
71194;BME280;58903;47.210;8.618;2023-04-24T11:11:45;93751.69;;;26.62;40.09
71194;BME280;58903;47.210;8.618;2023-04-24T11:14:14;93753.91;;;26.63;40.69
71194;BME280;58903;47.210;8.618;2023-04-24T11:16:46;93742.88;;;26.63;40.43
71194;BME280;58903;47.210;8.618;2023-04-24T11:19:39;93747.63;;;26.63;40.52
71194;BME280;58903;47.210;8.618;2023-04-24T11:22:14;93748.38;;;26.63;40.42
71194;BME280;58903;47.210;8.618;2023-04-24T11:27:16;93734.03;;;26.65;40.49
71194;BME280;58903;47.210;8.618;2023-04-24T11:30:02;93737.88;;;26.62;40.51
71194;BME280;58903;47.210;8.618;2023-04-24T11:34:58;93740.84;;;26.64;40.35
71194;BME280;58903;47.210;8.618;2023-04-24T11:37:27;93751.69;;;26.62;40.74
71194;BME280;58903;47.210;8.618;2023-04-24T11:39:55;93745.63;;;26.63;40.16
71194;BME280;58903;47.210;8.618;2023-04-24T11:42:28;93748.94;;;26.62;40.83
71194;BME280;58903;47.210;8.618;2023-04-24T11:45:23;93746.88;;;26.62;40.82
71194;BME280;58903;47.210;8.618;2023-04-24T11:48:08;93745.09;;;26.65;40.50
71194;BME280;58903;47.210;8.618;2023-04-24T11:50:50;93748.78;;;26.67;40.43
71194;BME280;58903;47.210;8.618;2023-04-24T11:56:37;93728.94;;;26.69;40.04
71194;BME280;58903;47.210;8.618;2023-04-24T11:59:10;93745.19;;;26.72;40.56
71194;BME280;58903;47.210;8.618;2023-04-24T12:01:53;93745.19;;;26.72;39.79
71194;BME280;58903;47.210;8.618;2023-04-24T12:04:21;93744.88;;;26.76;40.13
71194;BME280;58903;47.210;8.618;2023-04-24T12:07:07;93745.19;;;26.72;40.07
71194;BME280;58903;47.210;8.618;2023-04-24T12:10:02;93748.47;;;26.71;39.98
71194;BME280;58903;47.210;8.618;2023-04-24T12:12:28;93747.75;;;26.70;40.51
71194;BME280;58903;47.210;8.618;2023-04-24T12:14:58;93749.53;;;26.68;40.74
71194;BME280;58903;47.210;8.618;2023-04-24T12:17:29;93753.97;;;26.71;39.78
71194;BME280;58903;47.210;8.618;2023-04-24T12:20:09;93747.75;;;26.70;40.17
71194;BME280;58903;47.210;8.618;2023-04-24T12:26:03;93758.69;;;26.76;40.45
71194;BME280;58903;47.210;8.618;2023-04-24T12:28:38;93759.22;;;26.74;40.30
71194;BME280;58903;47.210;8.618;2023-04-24T12:31:14;93762.19;;;26.76;40.36
71194;BME280;58903;47.210;8.618;2023-04-24T12:33:42;93748.38;;;26.76;40.31
71194;BME280;58903;47.210;8.618;2023-04-24T12:36:12;93753.91;;;26.76;40.42
71194;BME280;58903;47.210;8.618;2023-04-24T12:38:43;93756.47;;;26.74;40.75
71194;BME280;58903;47.210;8.618;2023-04-24T12:41:12;93750.41;;;26.76;40.75
71194;BME280;58903;47.210;8.618;2023-04-24T12:43:52;93741.28;;;26.81;40.25
71194;BME280;58903;47.210;8.618;2023-04-24T12:46:18;93743.06;;;26.78;40.38
71194;BME280;58903;47.210;8.618;2023-04-24T12:48:51;93746.59;;;26.79;40.60
71194;BME280;58903;47.210;8.618;2023-04-24T12:51:36;93738.50;;;26.81;40.76
71194;BME280;58903;47.210;8.618;2023-04-24T12:54:04;93743.06;;;26.78;40.52
71194;BME280;58903;47.210;8.618;2023-04-24T12:56:31;93736.81;;;26.78;40.50
71194;BME280;58903;47.210;8.618;2023-04-24T12:59:13;93740.84;;;26.77;40.69
71194;BME280;58903;47.210;8.618;2023-04-24T13:02:08;93745.63;;;26.76;40.62
71194;BME280;58903;47.210;8.618;2023-04-24T13:04:36;93750.19;;;26.74;40.20
71194;BME280;58903;47.210;8.618;2023-04-24T13:07:02;93748.94;;;26.75;40.47
71194;BME280;58903;47.210;8.618;2023-04-24T13:09:43;93750.94;;;26.74;40.51
71194;BME280;58903;47.210;8.618;2023-04-24T13:12:26;93742.31;;;26.78;40.43
71194;BME280;58903;47.210;8.618;2023-04-24T13:15:10;93740.72;;;26.82;40.08
71194;BME280;58903;47.210;8.618;2023-04-24T13:17:45;93738.50;;;26.81;40.62
71194;BME280;58903;47.210;8.618;2023-04-24T13:20:13;93735.00;;;26.80;40.26
71194;BME280;58903;47.210;8.618;2023-04-24T13:22:43;93735.00;;;26.80;40.56
71194;BME280;58903;47.210;8.618;2023-04-24T13:25:09;93733.53;;;26.79;40.74
71194;BME280;58903;47.210;8.618;2023-04-24T13:27:39;93722.81;;;26.76;40.60
71194;BME280;58903;47.210;8.618;2023-04-24T13:30:19;93737.00;;;26.80;40.00
71194;BME280;58903;47.210;8.618;2023-04-24T13:33:17;93728.94;;;26.82;40.38
71194;BME280;58903;47.210;8.618;2023-04-24T13:35:43;93730.53;;;26.77;40.58
71194;BME280;58903;47.210;8.618;2023-04-24T13:38:24;93724.31;;;26.77;40.35
71194;BME280;58903;47.210;8.618;2023-04-24T13:40:52;93721.75;;;26.79;40.65
71194;BME280;58903;47.210;8.618;2023-04-24T13:43:40;93722.91;;;26.83;40.31
71194;BME280;58903;47.210;8.618;2023-04-24T13:46:16;93714.44;;;26.81;40.80
71194;BME280;58903;47.210;8.618;2023-04-24T13:48:42;93718.53;;;26.88;40.75
71194;BME280;58903;47.210;8.618;2023-04-24T13:51:09;93710.47;;;26.90;40.62
71194;BME280;58903;47.210;8.618;2023-04-24T13:53:50;93706.41;;;26.91;40.89
71194;BME280;58903;47.210;8.618;2023-04-24T13:56:49;93709.59;;;26.95;40.55
71194;BME280;58903;47.210;8.618;2023-04-24T13:59:20;93703.56;;;26.97;41.25
71194;BME280;58903;47.210;8.618;2023-04-24T14:01:47;93697.59;;;26.92;40.96
71194;BME280;58903;47.210;8.618;2023-04-24T14:04:32;93706.09;;;26.95;41.04
71194;BME280;58903;47.210;8.618;2023-04-24T14:07:18;93705.56;;;26.96;40.43
71194;BME280;58903;47.210;8.618;2023-04-24T14:10:19;93705.56;;;26.96;40.40
71194;BME280;58903;47.210;8.618;2023-04-24T14:12:54;93703.56;;;26.97;40.74